createdAt,value
2023-03-02T00:02:23.967Z,20.05
2023-03-02T00:04:52.160Z,18.15
2023-03-02T00:07:23.909Z,19.77
2023-03-02T00:09:50.397Z,16.00
2023-03-02T00:12:16.848Z,23.00
2023-03-02T00:14:43.264Z,22.45
2023-03-02T00:17:10.546Z,22.58
2023-03-02T00:19:37.541Z,18.63
2023-03-02T00:22:04.370Z,25.85
2023-03-02T00:24:30.882Z,23.42
2023-03-02T00:26:57.636Z,22.60
2023-03-02T00:29:24.101Z,27.85
2023-03-02T00:31:50.552Z,25.20
2023-03-02T00:34:16.970Z,26.02
2023-03-02T00:36:43.587Z,22.50
2023-03-02T00:39:10.151Z,25.02
2023-03-02T00:41:36.502Z,29.13
2023-03-02T00:44:02.861Z,28.15
2023-03-02T00:46:29.198Z,25.00
2023-03-02T00:48:55.640Z,29.08
2023-03-02T00:51:22.151Z,26.13
2023-03-02T00:53:48.627Z,26.10
2023-03-02T00:56:14.939Z,29.98
2023-03-02T00:58:41.559Z,28.30
2023-03-02T01:01:09.413Z,20.98
2023-03-02T01:03:36.079Z,27.70
2023-03-02T01:06:02.611Z,24.73
2023-03-02T01:08:29.042Z,28.15
2023-03-02T01:10:55.360Z,24.88
2023-03-02T01:13:21.695Z,26.95
2023-03-02T01:15:48.064Z,25.13
2023-03-02T01:18:14.717Z,28.35
2023-03-02T01:20:41.101Z,28.05
2023-03-02T01:23:07.409Z,28.40
2023-03-02T01:25:33.932Z,27.58
2023-03-02T01:28:00.334Z,26.60
2023-03-02T01:30:26.766Z,26.55
2023-03-02T01:32:53.170Z,32.25
2023-03-02T01:35:19.596Z,24.42
2023-03-02T01:37:45.930Z,29.95
2023-03-02T01:40:13.427Z,28.17
2023-03-02T01:42:45.509Z,22.27
2023-03-02T01:45:30.748Z,26.58
2023-03-02T01:47:57.078Z,24.45
2023-03-02T01:50:24.849Z,28.65
2023-03-02T01:52:52.494Z,30.05
2023-03-02T01:55:25.063Z,28.48
2023-03-02T01:57:52.239Z,26.38
2023-03-02T02:00:21.960Z,31.38
2023-03-02T02:02:49.358Z,27.58
2023-03-02T02:05:17.409Z,30.10
2023-03-02T02:07:43.966Z,24.38
2023-03-02T02:10:10.742Z,27.88
2023-03-02T02:12:37.078Z,28.17
2023-03-02T02:15:04.143Z,28.83
2023-03-02T02:17:31.103Z,27.48
2023-03-02T02:20:10.307Z,29.83
2023-03-02T02:22:55.515Z,30.83
2023-03-02T02:25:36.896Z,28.67
2023-03-02T02:28:08.494Z,28.38
2023-03-02T02:30:36.417Z,31.10
2023-03-02T02:33:03.563Z,28.40
2023-03-02T02:35:31.401Z,22.23
2023-03-02T02:38:01.250Z,28.00
2023-03-02T02:40:46.153Z,22.92
2023-03-02T02:43:13.819Z,27.27
2023-03-02T02:45:40.386Z,20.80
2023-03-02T02:48:10.700Z,27.08
2023-03-02T02:50:38.013Z,26.52
2023-03-02T02:53:11.939Z,29.05
2023-03-02T02:55:38.528Z,25.15
2023-03-02T02:58:11.219Z,31.05
2023-03-02T03:00:38.322Z,31.60
2023-03-02T03:03:29.051Z,23.08
2023-03-02T03:05:55.754Z,31.77
2023-03-02T03:08:40.311Z,31.33
2023-03-02T03:11:06.995Z,28.23
2023-03-02T03:13:33.498Z,29.05
2023-03-02T03:16:01.535Z,27.73
2023-03-02T03:18:27.925Z,27.88
2023-03-02T03:20:54.249Z,20.92
2023-03-02T03:23:20.618Z,28.13
2023-03-02T03:25:46.969Z,27.75
2023-03-02T03:28:13.289Z,26.58
2023-03-02T03:30:39.644Z,29.67
2023-03-02T03:33:05.969Z,25.05
2023-03-02T03:35:32.440Z,27.55
2023-03-02T03:37:58.939Z,25.48
2023-03-02T03:40:25.338Z,18.85
2023-03-02T03:42:51.660Z,19.13
2023-03-02T03:45:18.099Z,18.02
2023-03-02T03:47:44.438Z,26.13
2023-03-02T03:50:11.081Z,26.90
2023-03-02T03:52:37.425Z,25.88
2023-03-02T03:55:04.092Z,26.00
2023-03-02T03:57:30.489Z,24.38
2023-03-02T03:59:56.809Z,23.23
2023-03-02T04:02:23.228Z,27.77
2023-03-02T04:04:49.629Z,25.02
2023-03-02T04:07:16.440Z,27.98
2023-03-02T04:09:42.900Z,26.27
2023-03-02T04:12:09.652Z,29.00
2023-03-02T04:14:36.336Z,27.60
2023-03-02T04:17:05.365Z,23.95
2023-03-02T04:19:32.301Z,24.63
2023-03-02T04:21:58.657Z,21.00
2023-03-02T04:24:25.111Z,23.95
2023-03-02T04:26:51.696Z,25.88
2023-03-02T04:29:18.591Z,26.38
2023-03-02T04:31:44.931Z,18.60
2023-03-02T04:34:11.298Z,22.02
2023-03-02T04:36:38.923Z,25.67
2023-03-02T04:39:05.551Z,26.83
2023-03-02T04:41:31.901Z,24.75
2023-03-02T04:43:58.353Z,29.08
2023-03-02T04:46:25.899Z,23.17
2023-03-02T04:48:52.937Z,21.17
2023-03-02T04:51:25.096Z,21.92
2023-03-02T04:53:52.883Z,25.38
2023-03-02T04:56:19.382Z,23.98
2023-03-02T04:58:46.176Z,18.95
2023-03-02T05:01:13.676Z,19.50
2023-03-02T05:03:40.130Z,22.55
2023-03-02T05:06:06.497Z,21.13
2023-03-02T05:08:32.960Z,24.13
2023-03-02T05:10:59.394Z,18.25
2023-03-02T05:13:26.597Z,22.85
2023-03-02T05:15:53.598Z,22.70
2023-03-02T05:18:20.278Z,19.25
2023-03-02T05:20:46.717Z,22.10
2023-03-02T05:23:25.176Z,21.13
2023-03-02T05:25:52.777Z,19.30
2023-03-02T05:28:20.396Z,16.42
2023-03-02T05:30:47.357Z,20.15
2023-03-02T05:33:13.864Z,15.13
2023-03-02T05:35:40.515Z,16.58
2023-03-02T05:38:06.890Z,15.57
2023-03-02T05:40:33.337Z,21.52
2023-03-02T05:42:59.732Z,21.90
2023-03-02T05:45:28.529Z,19.35
2023-03-02T05:47:54.907Z,20.42
2023-03-02T05:50:21.665Z,13.82
2023-03-02T05:52:48.230Z,12.27
2023-03-02T05:55:15.006Z,19.63
2023-03-02T05:57:41.623Z,18.13
2023-03-02T06:00:09.904Z,18.73
2023-03-02T06:02:37.941Z,18.67
2023-03-02T06:05:05.146Z,18.30
2023-03-02T06:07:31.555Z,17.40
2023-03-02T06:09:57.891Z,21.23
2023-03-02T06:12:24.246Z,18.17
2023-03-02T06:14:50.567Z,16.80
2023-03-02T06:17:16.883Z,19.98
2023-03-02T06:19:43.197Z,20.60
2023-03-02T06:22:09.559Z,19.13
2023-03-02T06:24:35.971Z,18.38
2023-03-02T06:27:02.282Z,17.45
2023-03-02T06:29:28.622Z,21.65
2023-03-02T06:31:55.249Z,19.48
2023-03-02T06:34:21.714Z,17.02
2023-03-02T06:36:48.076Z,19.60
2023-03-02T06:39:17.188Z,19.27
2023-03-02T06:41:44.419Z,16.20
2023-03-02T06:44:11.107Z,18.67
2023-03-02T06:46:38.088Z,19.92
2023-03-02T06:49:04.653Z,23.80
2023-03-02T06:51:31.482Z,19.77
2023-03-02T06:53:57.875Z,15.25
2023-03-02T06:56:24.589Z,18.58
2023-03-02T06:58:50.886Z,17.30
2023-03-02T07:01:17.259Z,17.45
2023-03-02T07:03:43.736Z,13.90
2023-03-02T07:06:11.114Z,15.43
2023-03-02T07:08:37.487Z,18.60
2023-03-02T07:11:08.196Z,20.25
2023-03-02T07:13:34.733Z,18.60
2023-03-02T07:16:05.094Z,15.80
2023-03-02T07:18:31.443Z,20.45
2023-03-02T07:20:57.808Z,17.33
2023-03-02T07:23:24.225Z,20.45
2023-03-02T07:25:50.542Z,19.38
2023-03-02T07:28:16.845Z,20.83
2023-03-02T07:30:43.328Z,18.05
2023-03-02T07:33:09.688Z,19.20
2023-03-02T07:35:36.046Z,19.25
2023-03-02T07:38:02.437Z,14.20
2023-03-02T07:40:28.907Z,17.52
2023-03-02T07:42:55.325Z,20.63
2023-03-02T07:45:24.883Z,20.92
2023-03-02T07:47:51.254Z,14.57
2023-03-02T07:50:17.658Z,22.27
2023-03-02T07:52:44.037Z,21.40
2023-03-02T07:55:10.709Z,22.48
2023-03-02T07:57:37.091Z,20.73
2023-03-02T08:00:04.329Z,14.65
2023-03-02T08:02:30.916Z,17.70
2023-03-02T08:04:57.278Z,19.75
2023-03-02T08:07:23.642Z,23.45
2023-03-02T08:09:50.050Z,22.40
2023-03-02T08:12:16.431Z,17.70
2023-03-02T08:14:42.805Z,14.60
2023-03-02T08:17:09.128Z,26.25
2023-03-02T08:19:35.577Z,24.23
2023-03-02T08:22:02.353Z,22.17
2023-03-02T08:24:28.768Z,24.88
2023-03-02T08:26:55.553Z,22.85
2023-03-02T08:29:21.947Z,21.75
2023-03-02T08:31:48.435Z,22.92
2023-03-02T08:34:14.804Z,21.50
2023-03-02T08:36:43.246Z,22.98
2023-03-02T08:39:09.933Z,22.85
2023-03-02T08:41:36.394Z,21.27
2023-03-02T08:44:02.991Z,21.95
2023-03-02T08:46:29.357Z,18.75
2023-03-02T08:48:55.789Z,21.05
2023-03-02T08:51:23.706Z,25.75
2023-03-02T08:53:51.476Z,23.23
2023-03-02T08:56:19.223Z,22.35
2023-03-02T08:58:45.755Z,18.25
2023-03-02T09:01:18.497Z,20.60
2023-03-02T09:03:45.143Z,19.95
2023-03-02T09:06:11.703Z,17.45
2023-03-02T09:08:38.297Z,17.42
2023-03-02T09:11:04.870Z,18.73
2023-03-02T09:13:31.360Z,16.63
2023-03-02T09:15:58.084Z,20.88
2023-03-02T09:18:24.445Z,16.77
2023-03-02T09:20:51.943Z,21.15
2023-03-02T09:23:18.755Z,19.38
2023-03-02T09:25:46.409Z,14.45
2023-03-02T09:28:12.792Z,20.35
2023-03-02T09:30:39.172Z,19.50
2023-03-02T09:33:05.538Z,19.27
2023-03-02T09:35:32.088Z,21.77
2023-03-02T09:37:58.446Z,18.60
2023-03-02T09:40:26.964Z,20.23
2023-03-02T09:42:56.241Z,18.83
2023-03-02T09:45:30.386Z,17.88
2023-03-02T09:48:04.085Z,17.45
2023-03-02T09:50:30.470Z,15.90
2023-03-02T09:53:11.822Z,19.08
2023-03-02T09:55:41.213Z,17.65
2023-03-02T09:58:12.776Z,16.38
2023-03-02T10:00:42.212Z,16.08
2023-03-02T10:03:17.421Z,15.85
2023-03-02T10:05:45.457Z,15.55
2023-03-02T10:08:13.852Z,16.88
2023-03-02T10:10:49.541Z,19.70
2023-03-02T10:13:21.367Z,16.73
2023-03-02T10:16:03.165Z,15.95
2023-03-02T10:18:29.503Z,16.95
2023-03-02T10:21:01.779Z,13.95
2023-03-02T10:23:37.748Z,15.35
2023-03-02T10:26:10.323Z,19.80
2023-03-02T10:28:44.189Z,11.05
2023-03-02T10:31:30.368Z,17.45
2023-03-02T10:33:57.027Z,18.13
2023-03-02T10:36:23.460Z,15.93
2023-03-02T10:38:50.032Z,16.98
2023-03-02T10:41:19.426Z,21.45
2023-03-02T10:43:47.323Z,14.93
2023-03-02T10:46:14.034Z,16.08
2023-03-02T10:49:06.656Z,13.50
2023-03-02T10:51:37.486Z,17.20
2023-03-02T10:54:03.876Z,17.58
2023-03-02T10:56:30.826Z,13.93
2023-03-02T10:59:03.126Z,13.30
2023-03-02T11:01:31.193Z,14.95
2023-03-02T11:04:01.797Z,19.08
2023-03-02T11:06:29.109Z,16.48
2023-03-02T11:09:05.808Z,17.00
2023-03-02T11:11:32.795Z,19.00
2023-03-02T11:14:17.812Z,16.40
2023-03-02T11:16:44.287Z,18.73
2023-03-02T11:19:25.547Z,17.65
2023-03-02T11:21:56.719Z,18.40
2023-03-02T11:24:29.528Z,20.27
2023-03-02T11:27:14.050Z,19.15
2023-03-02T11:29:58.905Z,18.92
2023-03-02T11:32:36.955Z,20.02
2023-03-02T11:35:08.783Z,15.35
2023-03-02T11:37:39.724Z,16.15
2023-03-02T11:40:08.805Z,18.38
2023-03-02T11:42:37.467Z,20.40
2023-03-02T11:45:18.359Z,19.35
2023-03-02T11:47:54.290Z,16.58
2023-03-02T11:50:25.558Z,14.95
2023-03-02T11:52:54.527Z,22.10
2023-03-02T11:55:25.164Z,20.65
2023-03-02T11:57:55.743Z,20.85
2023-03-02T12:00:22.362Z,17.30
2023-03-02T12:02:58.178Z,18.95
2023-03-02T12:05:26.145Z,20.30
2023-03-02T12:07:58.712Z,16.08
2023-03-02T12:10:30.478Z,15.75
2023-03-02T12:13:03.049Z,18.25
2023-03-02T12:15:40.287Z,12.57
2023-03-02T12:18:35.881Z,17.70
2023-03-02T12:21:04.052Z,16.38
2023-03-02T12:23:31.182Z,16.05
2023-03-02T12:26:06.297Z,18.52
2023-03-02T12:28:37.084Z,22.65
2023-03-02T12:31:13.605Z,20.40
2023-03-02T12:33:50.466Z,19.02
2023-03-02T12:36:19.768Z,18.98
2023-03-02T12:38:52.770Z,19.63
2023-03-02T12:41:32.051Z,20.27
2023-03-02T12:44:01.436Z,21.08
2023-03-02T12:46:27.818Z,18.63
2023-03-02T12:48:57.310Z,19.48
2023-03-02T12:51:25.273Z,19.95
2023-03-02T12:54:05.831Z,20.75
2023-03-02T12:56:32.379Z,19.42
2023-03-02T12:58:59.434Z,18.65
2023-03-02T13:01:27.369Z,17.83
2023-03-02T13:03:54.544Z,20.25
2023-03-02T13:06:23.069Z,20.10
2023-03-02T13:08:56.947Z,15.32
2023-03-02T13:11:33.555Z,17.00
2023-03-02T13:14:00.707Z,18.23
2023-03-02T13:16:32.884Z,16.25
2023-03-02T13:19:00.757Z,17.10
2023-03-02T13:21:34.851Z,15.45
2023-03-02T13:24:01.429Z,14.50
2023-03-02T13:26:32.373Z,19.13
2023-03-02T13:29:14.617Z,18.33
2023-03-02T13:31:41.011Z,18.80
2023-03-02T13:34:19.733Z,15.82
2023-03-02T13:36:46.145Z,22.17
2023-03-02T13:39:19.654Z,21.35
2023-03-02T13:41:56.530Z,21.20
2023-03-02T13:44:30.677Z,15.32
2023-03-02T13:46:57.694Z,16.98
2023-03-02T13:49:28.439Z,14.57
2023-03-02T13:52:02.717Z,16.58
2023-03-02T13:54:30.683Z,18.58
2023-03-02T13:56:58.264Z,18.85
2023-03-02T13:59:24.757Z,22.35
2023-03-02T14:01:51.386Z,22.13
2023-03-02T14:04:21.496Z,20.45
2023-03-02T14:06:47.988Z,19.10
2023-03-02T14:09:14.502Z,16.65
2023-03-02T14:11:42.235Z,15.45
2023-03-02T14:14:12.393Z,20.38
2023-03-02T14:16:38.807Z,17.85
2023-03-02T14:19:05.198Z,18.25
2023-03-02T14:21:32.101Z,19.33
2023-03-02T14:23:59.104Z,21.65
2023-03-02T14:26:37.593Z,17.17
2023-03-02T14:29:07.024Z,17.85
2023-03-02T14:31:34.728Z,17.13
2023-03-02T14:34:01.545Z,14.98
2023-03-02T14:36:29.847Z,17.77
2023-03-02T14:38:56.896Z,20.05
2023-03-02T14:41:23.882Z,14.25
2023-03-02T14:43:50.676Z,19.70
2023-03-02T14:46:17.041Z,15.40
2023-03-02T14:48:43.445Z,18.10
2023-03-02T14:51:20.824Z,18.20
2023-03-02T14:53:49.490Z,15.75
2023-03-02T14:56:17.428Z,19.00
2023-03-02T14:58:43.954Z,19.13
2023-03-02T15:01:11.703Z,12.52
2023-03-02T15:03:38.102Z,20.80
2023-03-02T15:06:04.744Z,18.25
2023-03-02T15:08:31.341Z,17.55
2023-03-02T15:10:58.150Z,16.80
2023-03-02T15:13:24.565Z,18.48
2023-03-02T15:15:52.759Z,19.75
2023-03-02T15:18:19.843Z,15.35
2023-03-02T15:20:46.395Z,17.35
2023-03-02T15:23:12.806Z,16.38
2023-03-02T15:25:39.505Z,18.15
2023-03-02T15:28:06.124Z,15.98
2023-03-02T15:30:32.560Z,18.42
2023-03-02T15:32:59.527Z,19.25
2023-03-02T15:35:27.117Z,19.95
2023-03-02T15:37:54.163Z,19.35
2023-03-02T15:40:20.564Z,20.10
2023-03-02T15:42:47.922Z,16.60
2023-03-02T15:45:14.379Z,17.65
2023-03-02T15:47:40.767Z,13.65
2023-03-02T15:50:07.240Z,15.73
2023-03-02T15:52:33.664Z,20.60
2023-03-02T15:55:00.151Z,17.35
2023-03-02T15:57:26.520Z,15.18
2023-03-02T15:59:52.892Z,16.85
2023-03-02T16:02:19.291Z,15.70
2023-03-02T16:04:45.708Z,13.32
2023-03-02T16:07:12.090Z,14.95
2023-03-02T16:09:38.458Z,13.77
2023-03-02T16:12:04.927Z,21.20
2023-03-02T16:14:31.265Z,13.10
2023-03-02T16:16:57.891Z,16.05
2023-03-02T16:19:24.313Z,14.20
2023-03-02T16:21:50.643Z,15.48
2023-03-02T16:24:17.220Z,14.43
2023-03-02T16:26:44.731Z,15.52
2023-03-02T16:29:11.749Z,14.13
2023-03-02T16:31:39.224Z,16.25
2023-03-02T16:34:08.728Z,17.33
2023-03-02T16:36:37.039Z,15.23
2023-03-02T16:39:03.623Z,16.88
2023-03-02T16:41:30.130Z,18.13
2023-03-02T16:43:58.257Z,19.83
2023-03-02T16:46:27.414Z,24.98
2023-03-02T16:48:53.999Z,15.40
2023-03-02T16:51:21.019Z,18.73
2023-03-02T16:53:48.345Z,19.13
2023-03-02T16:56:14.971Z,16.83
2023-03-02T16:58:41.558Z,14.75
2023-03-02T17:01:12.430Z,16.48
2023-03-02T17:03:38.784Z,14.68
2023-03-02T17:06:05.918Z,13.15
2023-03-02T17:08:32.342Z,18.55
2023-03-02T17:10:58.731Z,10.95
2023-03-02T17:13:25.260Z,15.65
2023-03-02T17:15:51.666Z,14.60
2023-03-02T17:18:18.031Z,15.18
2023-03-02T17:20:44.410Z,16.67
2023-03-02T17:23:12.460Z,18.83
2023-03-02T17:25:38.906Z,16.00
2023-03-02T17:28:05.547Z,15.07
2023-03-02T17:30:31.963Z,17.52
2023-03-02T17:32:58.279Z,20.60
2023-03-02T17:35:24.614Z,18.23
2023-03-02T17:37:50.982Z,19.55
2023-03-02T17:40:17.736Z,14.77
2023-03-02T17:42:44.140Z,15.35
2023-03-02T17:45:18.514Z,16.13
2023-03-02T17:47:44.986Z,14.32
2023-03-02T17:50:12.166Z,20.73
2023-03-02T17:52:38.595Z,14.93
2023-03-02T17:55:05.165Z,14.35
2023-03-02T17:57:31.595Z,17.52
2023-03-02T17:59:58.080Z,17.90
2023-03-02T18:02:24.506Z,17.73
2023-03-02T18:04:50.880Z,15.93
2023-03-02T18:07:17.295Z,16.38
2023-03-02T18:09:43.809Z,14.27
2023-03-02T18:12:10.155Z,22.08
2023-03-02T18:14:36.561Z,17.45
2023-03-02T18:17:04.940Z,19.13
2023-03-02T18:19:31.597Z,18.48
2023-03-02T18:21:57.948Z,20.60
2023-03-02T18:24:24.293Z,20.38
2023-03-02T18:26:50.697Z,20.95
2023-03-02T18:29:17.102Z,17.67
2023-03-02T18:31:43.516Z,19.52
2023-03-02T18:34:09.912Z,23.02
2023-03-02T18:36:36.447Z,19.92
2023-03-02T18:39:03.993Z,20.55
2023-03-02T18:41:32.429Z,18.17
2023-03-02T18:44:01.195Z,16.02
2023-03-02T18:46:28.520Z,16.73
2023-03-02T18:48:55.959Z,14.95
2023-03-02T18:51:23.347Z,12.20
2023-03-02T18:53:50.991Z,18.45
2023-03-02T18:56:17.908Z,16.73
2023-03-02T18:58:44.581Z,13.60
2023-03-02T19:01:11.136Z,12.90
2023-03-02T19:03:38.993Z,13.00
2023-03-02T19:06:07.227Z,13.05
2023-03-02T19:08:34.386Z,13.15
2023-03-02T19:11:00.877Z,13.60
2023-03-02T19:13:27.905Z,12.70
2023-03-02T19:15:54.871Z,12.57
2023-03-02T19:18:22.480Z,10.63
2023-03-02T19:20:49.778Z,12.43
2023-03-02T19:23:16.694Z,13.38
2023-03-02T19:25:43.266Z,10.13
2023-03-02T19:28:09.624Z,12.63
2023-03-02T19:30:36.744Z,12.57
2023-03-02T19:33:05.910Z,9.75
2023-03-02T19:35:32.302Z,9.57
2023-03-02T19:37:58.670Z,8.85
2023-03-02T19:40:27.177Z,10.60
2023-03-02T19:42:54.762Z,11.82
2023-03-02T19:45:22.667Z,9.82
2023-03-02T19:47:48.989Z,9.38
2023-03-02T19:50:16.215Z,11.40
2023-03-02T19:52:42.740Z,10.15
2023-03-02T19:55:10.502Z,9.07
2023-03-02T19:57:37.420Z,11.13
2023-03-02T20:00:05.263Z,10.43
2023-03-02T20:02:31.878Z,10.27
2023-03-02T20:04:58.248Z,12.13
2023-03-02T20:07:24.562Z,10.13
2023-03-02T20:09:50.871Z,10.68
2023-03-02T20:12:17.270Z,9.65
2023-03-02T20:14:48.610Z,11.27
2023-03-02T20:17:19.635Z,10.00
2023-03-02T20:19:46.871Z,10.05
2023-03-02T20:22:13.529Z,9.63
2023-03-02T20:24:40.364Z,11.77
2023-03-02T20:27:07.159Z,7.55
2023-03-02T20:29:34.477Z,11.25
2023-03-02T20:32:01.475Z,10.27
2023-03-02T20:34:27.861Z,8.98
2023-03-02T20:36:54.290Z,8.07
2023-03-02T20:39:23.240Z,9.27
2023-03-02T20:41:49.681Z,10.00
2023-03-02T20:44:16.557Z,8.35
2023-03-02T20:46:44.921Z,9.18
2023-03-02T20:49:14.329Z,9.60
2023-03-02T20:51:43.959Z,12.48
2023-03-02T20:54:10.424Z,9.68
2023-03-02T20:56:36.818Z,9.90
2023-03-02T20:59:03.767Z,9.00
2023-03-02T21:01:30.467Z,11.32
2023-03-02T21:03:56.918Z,9.75
2023-03-02T21:06:23.280Z,8.02
2023-03-02T21:08:49.606Z,10.10
2023-03-02T21:11:17.296Z,8.95
2023-03-02T21:13:47.388Z,8.85
2023-03-02T21:16:25.553Z,7.20
2023-03-02T21:18:52.161Z,8.35
2023-03-02T21:21:20.174Z,11.02
2023-03-02T21:23:49.410Z,9.77
2023-03-02T21:26:16.282Z,8.68
2023-03-02T21:28:45.944Z,7.55
2023-03-02T21:31:13.205Z,9.98
2023-03-02T21:33:39.745Z,10.25
2023-03-02T21:36:06.458Z,9.35
2023-03-02T21:38:32.804Z,7.93
2023-03-02T21:40:59.145Z,9.90
2023-03-02T21:43:25.508Z,10.82
2023-03-02T21:45:51.825Z,9.88
2023-03-02T21:48:18.561Z,9.57
2023-03-02T21:50:44.929Z,6.95
2023-03-02T21:53:12.432Z,7.85
2023-03-02T21:55:39.045Z,6.88
2023-03-02T21:58:06.103Z,7.05
2023-03-02T22:00:33.926Z,5.07
2023-03-02T22:03:00.505Z,7.47
2023-03-02T22:05:27.187Z,8.20
2023-03-02T22:07:53.790Z,5.97
2023-03-02T22:10:52.867Z,9.05
2023-03-02T22:13:22.223Z,8.20
2023-03-02T22:15:49.078Z,6.05
2023-03-02T22:18:16.722Z,8.60
2023-03-02T22:20:44.399Z,7.45
2023-03-02T22:23:15.231Z,7.32
2023-03-02T22:25:43.528Z,9.02
2023-03-02T22:28:23.515Z,7.63
2023-03-02T22:30:53.262Z,6.82
2023-03-02T22:33:20.730Z,7.97
2023-03-02T22:35:48.155Z,8.27
2023-03-02T22:38:25.100Z,6.30
2023-03-02T22:40:52.096Z,7.70
2023-03-02T22:43:31.560Z,8.85
2023-03-02T22:45:59.349Z,6.35
2023-03-02T22:48:28.665Z,15.32
2023-03-02T22:50:55.193Z,8.48
2023-03-02T22:53:26.520Z,7.70
2023-03-02T22:56:15.630Z,10.05
2023-03-02T22:58:46.448Z,7.07
2023-03-02T23:01:18.970Z,8.40
2023-03-02T23:03:45.819Z,4.80
2023-03-02T23:06:28.922Z,8.73
2023-03-02T23:08:57.088Z,10.90
2023-03-02T23:11:24.212Z,10.15
2023-03-02T23:13:52.182Z,9.93
2023-03-02T23:16:23.320Z,7.07
2023-03-02T23:18:50.325Z,7.00
2023-03-02T23:21:18.365Z,8.27
2023-03-02T23:23:44.680Z,9.50
2023-03-02T23:26:11.187Z,6.85
2023-03-02T23:28:37.799Z,9.27
2023-03-02T23:31:04.387Z,11.88
2023-03-02T23:33:30.866Z,8.50
2023-03-02T23:35:57.411Z,7.68
2023-03-02T23:38:23.849Z,8.93
2023-03-02T23:40:50.173Z,9.80
2023-03-02T23:43:16.522Z,10.00
2023-03-02T23:45:42.855Z,13.45
2023-03-02T23:48:09.635Z,10.27
2023-03-02T23:50:36.033Z,11.88
2023-03-02T23:53:02.398Z,10.63
2023-03-02T23:55:28.943Z,8.02
2023-03-02T23:57:55.242Z,10.48
